Latest Coastal Weather Observations for Hillarys Point Boat Harbour

IDW60701

Issued at 11:31 pm WST Wednesday 4 May 2016 (issued every 10 minutes, with the page automatically refreshed every 10 minutes)

About coastal observations | Map of coastal stations | Coastal observations for WA | Marine services | Other Formats
Station Details ID: 009265 Name: HILLARYS BOAT HARBOUR NTC AWS Lat: -31.83 Lon: 115.74 Height: 0.0 m
Data from the previous 72 hours. | See also: Recent months for locations in Western Australia
Date/Time
WST
Temp

°C
Wind Pressure Rain
since 9am
mm
Weather Cloud Vis
km
Sea
Height
m
Swell
Dir
 
Speed
knots
Gust
knots
hPa Trend Height
m
Period
s
Dir
04/11:30pm 19.3 SW 8 14 1015.2 - - - - - - - - -
04/11:00pm 18.9 SSW 5 11 1015.1 - - - - - - - - -
04/10:30pm 18.2 SSW 2 5 1015.3 - - - - - - - - -
04/10:00pm 17.6 SW 5 9 1015.4 - - - - - - - - -
04/09:30pm 18.9 SW 8 12 1015.2 - - - - - - - - -
04/09:00pm 18.4 SSW 3 8 1015.0 - - - - - - - - -
04/08:30pm 19.5 SW 8 11 1015.0 - - - - - - - - -
04/08:00pm 19.4 SW 8 11 1015.1 - - - - - - - - -
04/07:30pm 19.3 SW 7 11 1015.0 - - - - - - - - -
04/07:00pm 19.3 SW 8 13 1014.8 - - - - - - - - -
04/06:30pm 19.4 SW 6 9 1014.4 - - - - - - - - -
04/06:00pm 19.3 SW 4 7 1014.2 - - - - - - - - -
04/05:30pm 19.3 SSW 4 7 1014.1 - - - - - - - - -
04/05:00pm 19.4 WSW 8 12 1014.2 - - - - - - - - -
04/04:30pm 20.0 SW 7 13 1014.2 - - - - - - - - -
04/04:00pm 19.8 SW 5 12 1014.1 - - - - - - - - -
04/03:30pm 20.1 SSW 3 6 1014.2 - - - - - - - - -
04/03:00pm 19.6 SW 3 4 1014.4 - - - - - - - - -
04/02:30pm 19.5 SW 2 5 1014.4 - - - - - - - - -
04/02:00pm 19.4 WSW 3 4 1014.5 - - - - - - - - -
04/01:30pm 19.2 WSW 3 4 1014.8 - - - - - - - - -
04/01:00pm 19.1 WSW 2 3 1015.2 - - - - - - - - -
04/12:30pm 19.4 W 2 3 1015.5 - - - - - - - - -
04/12:00pm 18.7 WSW 2 3 1016.1 - - - - - - - - -
04/11:30am 18.6 WSW 3 4 1016.5 - - - - - - - - -
04/11:00am 18.7 WSW 2 3 1016.9 - - - - - - - - -
04/10:30am 19.2 ENE 2 5 1017.1 - - - - - - - - -
04/10:00am 18.0 ESE 2 3 1017.2 - - - - - - - - -
04/09:30am 17.3 NE 1 2 1017.5 - - - - - - - - -
04/09:00am 16.4 NE 2 5 1017.6 - - - - - - - - -
04/08:30am 15.8 ENE 4 7 1017.6 - - - - - - - - -
04/08:00am 15.3 NNE 4 7 1017.7 - - - - - - - - -
04/07:30am 14.9 NE 3 6 1017.4 - - - - - - - - -
04/07:00am 14.9 ENE 6 10 1017.1 - - - - - - - - -
04/06:30am 15.1 NE 3 6 1017.1 - - - - - - - - -
04/06:00am 15.0 NE 4 7 1017.1 - - - - - - - - -
04/05:30am 15.0 NE 4 6 1017.1 - - - - - - - - -
04/05:00am 14.9 ENE 5 9 1017.1 - - - - - - - - -
04/04:30am 14.9 ENE 6 9 1017.0 - - - - - - - - -
04/04:00am 15.1 ENE 5 8 1017.2 - - - - - - - - -
04/03:30am 14.9 ENE 5 8 1017.4 - - - - - - - - -
04/03:00am 15.2 ENE 5 8 1017.7 - - - - - - - - -
04/02:30am 15.4 ENE 4 7 1017.9 - - - - - - - - -
04/02:00am 15.2 ENE 4 6 1018.1 - - - - - - - - -
04/01:30am 15.2 ENE 4 7 1018.3 - - - - - - - - -
04/01:00am 15.4 ENE 4 5 1018.4 - - - - - - - - -
04/12:30am 16.0 ENE 3 5 1018.6 - - - - - - - - -
04/12:00am 16.1 ENE 3 6 1018.8 - - - - - - - - -
 
Date/Time
WST
Temp

°C
Wind Pressure Rain
since 9am
mm
Weather Cloud Vis
km
Sea
Height
m
Swell
Dir
 
Speed
knots
Gust
knots
hPa Trend Height
m
Period
s
Dir
03/11:30pm 15.8 ENE 2 4 1018.9 - - - - - - - - -
03/11:00pm 15.5 ENE 3 5 1019.1 - - - - - - - - -
03/10:30pm 16.2 ENE 2 3 1019.3 - - - - - - - - -
03/10:00pm 16.2 ENE 2 3 1019.6 - - - - - - - - -
03/09:30pm 17.1 E 1 3 1019.6 - - - - - - - - -
03/09:00pm 17.2 E 1 2 1019.5 - - - - - - - - -
03/08:30pm 18.1 SSE 3 7 1019.4 - - - - - - - - -
03/08:00pm 18.5 S 3 7 1019.5 - - - - - - - - -
03/07:30pm 18.9 SSW 2 8 1019.3 - - - - - - - - -
03/07:00pm 19.0 SSW 4 9 1019.1 - - - - - - - - -
03/06:30pm 19.1 SSW 3 7 1019.0 - - - - - - - - -
03/06:00pm 19.1 SSW 3 7 1019.0 - - - - - - - - -
03/05:30pm 19.3 SSW 4 8 1018.9 - - - - - - - - -
03/05:00pm 19.6 SSW 4 8 1018.8 - - - - - - - - -
03/04:30pm 19.8 SSW 4 7 1019.0 - - - - - - - - -
03/04:00pm 19.7 SSW 4 7 1019.1 - - - - - - - - -
03/03:30pm 19.5 SSW 4 7 1019.1 - - - - - - - - -
03/03:00pm 20.0 SSW 2 5 1019.3 - - - - - - - - -
03/02:30pm 19.9 SSW 3 5 1019.5 - - - - - - - - -
03/02:00pm 19.7 SSW 3 7 1019.6 - - - - - - - - -
03/01:30pm 19.9 SSW 2 5 1019.7 - - - - - - - - -
03/01:00pm 20.2 S 2 4 1020.0 - - - - - - - - -
03/12:30pm 20.3 SSW 3 5 1020.4 - - - - - - - - -
03/12:00pm 20.1 E 3 8 1020.7 - - - - - - - - -
03/11:30am 19.3 SE 4 9 1021.3 - - - - - - - - -
03/11:00am 19.3 SE 3 7 1021.6 - - - - - - - - -
03/10:30am 19.1 ENE 5 9 1021.8 - - - - - - - - -
03/10:00am 18.6 E 4 9 1021.9 - - - - - - - - -
03/09:30am 18.3 ENE 4 7 1022.1 - - - - - - - - -
03/09:00am 17.5 ENE 4 8 1022.0 - - - - - - - - -
03/08:30am 16.5 ENE 2 4 1021.8 - - - - - - - - -
03/08:00am 14.9 ENE 4 6 1021.6 - - - - - - - - -
03/07:30am 14.0 ENE 3 5 1021.3 - - - - - - - - -
03/07:00am 14.6 ENE 2 5 1020.9 - - - - - - - - -
03/06:30am 14.1 ENE 2 3 1020.8 - - - - - - - - -
03/06:00am 14.6 ENE 2 5 1020.6 - - - - - - - - -
03/05:30am 14.6 E 1 6 1020.6 - - - - - - - - -
03/05:00am 14.6 E 2 4 1020.5 - - - - - - - - -
03/04:30am 14.9 ESE 2 6 1020.3 - - - - - - - - -
03/04:00am 15.7 SSE 4 8 1020.2 - - - - - - - - -
03/03:30am 15.9 SSE 5 9 1020.2 - - - - - - - - -
03/03:00am 16.0 SSE 4 8 1020.3 - - - - - - - - -
03/02:30am 16.4 SSE 6 12 1020.1 - - - - - - - - -
03/02:00am 16.5 SSE 5 9 1020.3 - - - - - - - - -
03/01:30am 16.9 SE 4 8 1020.5 - - - - - - - - -
03/01:00am 17.1 SSE 5 8 1020.4 - - - - - - - - -
03/12:30am 17.2 SE 2 5 1020.4 - - - - - - - - -
03/12:00am 17.6 ESE 1 4 1020.4 - - - - - - - - -
 
Date/Time
WST
Temp

°C
Wind Pressure Rain
since 9am
mm
Weather Cloud Vis
km
Sea
Height
m
Swell
Dir
 
Speed
knots
Gust
knots
hPa Trend Height
m
Period
s
Dir
02/11:30pm 17.5 CALM 0 3 1020.5 - - - - - - - - -
02/11:00pm 17.8 SE 1 3 1020.5 - - - - - - - - -
02/10:30pm 18.7 SSE 3 6 1020.6 - - - - - - - - -
02/10:00pm 18.8 SSE 2 4 1020.6 - - - - - - - - -
02/09:30pm 19.2 SSE 2 4 1020.5 - - - - - - - - -
02/09:00pm 19.4 SSE 2 4 1020.6 - - - - - - - - -
02/08:30pm 19.6 S 2 5 1020.7 - - - - - - - - -
02/08:00pm 19.6 SSW 4 9 1020.7 - - - - - - - - -
02/07:30pm 19.6 SSW 4 10 1020.6 - - - - - - - - -
02/07:00pm 19.7 SSW 4 9 1020.5 - - - - - - - - -
02/06:30pm 19.5 SSW 3 8 1020.3 - - - - - - - - -
02/06:00pm 19.4 SSW 7 12 1020.1 - - - - - - - - -
02/05:30pm 19.5 SW 2 8 1019.8 - - - - - - - - -
02/05:00pm 18.9 WSW 1 2 1019.8 - - - - - - - - -
02/04:30pm 19.1 SSW 1 2 1019.8 - - - - - - - - -
02/04:00pm 18.4 SSE 2 7 1020.0 - - - - - - - - -
02/03:30pm 19.1 SW 2 4 1019.8 - - - - - - - - -
02/03:00pm 18.9 WSW 7 10 1020.0 - - - - - - - - -
02/02:30pm 19.1 W 5 10 1020.1 - - - - - - - - -
02/02:00pm 18.9 NNW 5 8 1020.1 - - - - - - - - -
02/01:30pm 19.0 NW 5 8 1020.3 - - - - - - - - -
02/01:00pm 17.6 NW 5 10 1020.7 - - - - - - - - -
02/12:30pm 18.0 WNW 6 10 1021.0 - - - - - - - - -
02/12:00pm 18.3 NW 6 10 1021.3 - - - - - - - - -
02/11:30am 18.2 NNW 6 9 1021.4 - - - - - - - - -
02/11:00am 18.1 NNW 6 10 1021.7 - - - - - - - - -
02/10:30am 17.7 NNW 6 8 1021.8 - - - - - - - - -
02/10:00am 17.7 N 5 7 1021.8 - - - - - - - - -
02/09:30am 17.2 NNE 4 5 1021.8 - - - - - - - - -
02/09:00am 15.3 NNE 5 7 1021.9 - - - - - - - - -
02/08:30am 14.0 NE 4 7 1021.9 - - - - - - - - -
02/08:00am 13.3 NE 3 5 1021.7 - - - - - - - - -
02/07:30am 13.2 NE 3 6 1021.4 - - - - - - - - -
02/07:00am 13.3 ENE 5 7 1021.2 - - - - - - - - -
02/06:30am 13.4 NE 3 6 1021.0 - - - - - - - - -
02/06:00am 13.2 NE 3 6 1020.9 - - - - - - - - -
02/05:30am 13.4 NE 3 5 1021.0 - - - - - - - - -
02/05:00am 13.7 NE 3 5 1020.7 - - - - - - - - -
02/04:30am 13.3 ENE 3 5 1020.5 - - - - - - - - -
02/04:00am 13.3 ENE 4 6 1020.2 - - - - - - - - -
02/03:30am 13.2 NE 3 5 1020.3 - - - - - - - - -
02/03:00am 13.3 ENE 3 4 1020.3 - - - - - - - - -
02/02:30am 13.3 ENE 3 5 1020.6 - - - - - - - - -
02/02:00am 13.6 ENE 3 5 1020.8 - - - - - - - - -
02/01:30am 13.9 ENE 3 5 1021.0 - - - - - - - - -
02/01:00am 14.1 ENE 3 5 1020.9 - - - - - - - - -
02/12:30am 14.7 ENE 3 4 1021.0 - - - - - - - - -
02/12:00am 15.2 ENE 2 4 1021.1 - - - - - - - - -

Other Formats:

Comma delimited format used in spreadsheet applications
http://www.bom.gov.au/fwo/IDW60701/IDW60701.95605.axf

JavaScript Object Notation format (JSON) in row-major order
http://www.bom.gov.au/fwo/IDW60701/IDW60701.95605.json